Time;durP1;ratioP1;P1;durP2;ratioP2;P2;SDS_P1;SDS_P2;PMS_P1;PMS_P2;Temp;Humidity;BMP_temperature;BMP_pressure;BME280_temperature;BME280_humidity;BME280_pressure;Samples;Min_cycle;Max_cycle;Signal;HPM_P1;HPM_P2
2023/05/05 00:00:12;;;;;;;5.85;3.35;;;;;;;-145.41;100.00;58600.66;4986866;28;20489;-73
2023/05/05 00:02:38;;;;;;;6.10;3.28;;;;;;;-145.41;100.00;58600.66;5003425;28;20052;-73
2023/05/05 00:05:04;;;;;;;5.28;2.88;;;;;;;-145.41;100.00;58600.66;5006323;28;20480;-73
2023/05/05 00:07:29;;;;;;;7.22;3.13;;;;;;;-145.41;100.00;58600.66;5006902;28;20037;-73
2023/05/05 00:09:55;;;;;;;7.82;3.40;;;;;;;-145.41;100.00;58600.66;5006396;28;20488;-73
2023/05/05 00:12:20;;;;;;;5.53;3.65;;;;;;;-145.41;100.00;58600.66;5003566;28;20573;-73
2023/05/05 00:14:45;;;;;;;6.90;3.72;;;;;;;-145.41;100.00;58600.66;5006117;28;20125;-73
2023/05/05 00:17:11;;;;;;;7.07;3.25;;;;;;;-145.41;100.00;58600.66;5003396;28;20053;-73
2023/05/05 00:19:36;;;;;;;6.28;3.15;;;;;;;-145.41;100.00;58600.66;5006072;28;20076;-73
2023/05/05 00:22:01;;;;;;;8.75;3.60;;;;;;;-145.41;100.00;58600.66;5003680;28;20053;-76
2023/05/05 00:24:26;;;;;;;7.30;4.00;;;;;;;-145.41;100.00;58600.66;4988922;28;20034;-74
2023/05/05 00:26:52;;;;;;;7.85;3.40;;;;;;;-145.41;100.00;58600.66;5002968;28;20042;-74
2023/05/05 00:29:17;;;;;;;6.88;3.90;;;;;;;-145.41;100.00;58600.66;5006050;28;20045;-74
2023/05/05 00:31:42;;;;;;;5.88;3.70;;;;;;;-145.41;100.00;58600.66;5002709;28;20046;-74
2023/05/05 00:34:08;;;;;;;7.32;3.58;;;;;;;-145.41;100.00;58600.66;5006325;28;20033;-73
2023/05/05 00:36:33;;;;;;;6.38;3.78;;;;;;;-145.41;100.00;58600.66;4984942;28;20030;-74
2023/05/05 00:38:58;;;;;;;7.05;3.60;;;;;;;-145.41;100.00;58600.66;4984761;28;20512;-74
2023/05/05 00:41:24;;;;;;;8.38;3.40;;;;;;;-145.41;100.00;58600.66;5005194;28;20040;-73
2023/05/05 00:43:49;;;;;;;7.03;3.40;;;;;;;-145.41;100.00;58600.66;5005314;28;20447;-74
2023/05/05 00:46:24;;;;;;;6.80;3.17;;;;;;;-145.41;100.00;58600.66;5002642;28;20444;-73
2023/05/05 00:48:50;;;;;;;6.03;3.42;;;;;;;-145.41;100.00;58600.66;4986870;28;20439;-74
2023/05/05 00:51:16;;;;;;;7.30;3.42;;;;;;;-145.41;100.00;58600.66;5003952;28;20038;-74
2023/05/05 00:53:43;;;;;;;6.10;3.45;;;;;;;-145.41;100.00;58600.66;4986606;28;20034;-74
2023/05/05 00:56:11;;;;;;;8.43;3.72;;;;;;;-145.41;100.00;58600.66;5004369;28;20105;-73
2023/05/05 00:58:38;;;;;;;7.97;3.92;;;;;;;-145.41;100.00;58600.66;4986022;28;20877;-74
2023/05/05 01:01:03;;;;;;;7.43;3.38;;;;;;;-145.41;100.00;58600.66;4987184;28;20038;-73
2023/05/05 01:03:29;;;;;;;9.55;4.25;;;;;;;-145.41;100.00;58600.66;5002869;28;20061;-74
2023/05/05 01:06:28;;;;;;;6.68;3.55;;;;;;;-145.41;100.00;58600.66;4983240;28;20044;-74
2023/05/05 01:09:05;;;;;;;8.45;3.65;;;;;;;-145.41;100.00;58600.66;4987794;28;20092;-73
2023/05/05 01:11:59;;;;;;;5.82;3.45;;;;;;;-145.41;100.00;58600.66;5000986;28;20069;-74
2023/05/05 01:14:38;;;;;;;6.22;4.13;;;;;;;-145.41;100.00;58600.66;5001188;28;20065;-73
2023/05/05 01:17:13;;;;;;;8.70;4.25;;;;;;;-145.41;100.00;58600.66;5002205;28;20046;-74
2023/05/05 01:19:57;;;;;;;7.75;4.18;;;;;;;-145.41;100.00;58600.66;4999390;28;20128;-74
2023/05/05 01:22:33;;;;;;;7.40;4.22;;;;;;;-145.41;100.00;58600.66;5001873;28;20042;-73
2023/05/05 01:25:29;;;;;;;7.18;4.35;;;;;;;-145.41;100.00;58600.66;5000064;28;20404;-74
2023/05/05 01:28:29;;;;;;;7.22;3.78;;;;;;;-145.41;100.00;58600.66;4997519;28;20069;-74
2023/05/05 01:31:32;;;;;;;7.72;3.97;;;;;;;-145.41;100.00;58600.66;5002079;28;20038;-74
2023/05/05 01:34:02;;;;;;;6.63;3.38;;;;;;;-145.41;100.00;58600.66;5004583;28;20042;-73
2023/05/05 01:36:35;;;;;;;7.43;3.95;;;;;;;-145.41;100.00;58600.66;4968436;28;20051;-73
2023/05/05 01:39:03;;;;;;;6.60;3.78;;;;;;;-145.41;100.00;58600.66;5004165;28;20034;-74
2023/05/05 01:41:46;;;;;;;6.60;4.10;;;;;;;-145.41;100.00;58600.66;4985573;28;20065;-74
2023/05/05 01:44:15;;;;;;;7.93;4.30;;;;;;;-145.41;100.00;58600.66;4977423;28;20452;-73
2023/05/05 01:46:40;;;;;;;7.45;4.30;;;;;;;-145.41;100.00;58600.66;5004341;28;20033;-73
2023/05/05 01:49:08;;;;;;;7.85;4.50;;;;;;;-145.41;100.00;58600.66;5001876;28;20374;-73
2023/05/05 01:51:35;;;;;;;9.52;4.55;;;;;;;-145.41;100.00;58600.66;4985372;28;20109;-73
2023/05/05 01:54:06;;;;;;;7.55;4.72;;;;;;;-145.41;100.00;58600.66;5003016;28;20500;-74
2023/05/05 01:56:33;;;;;;;9.70;5.32;;;;;;;-145.41;100.00;58600.66;4982421;28;20034;-74
2023/05/05 01:59:00;;;;;;;6.20;4.40;;;;;;;-145.41;100.00;58600.66;4984166;28;20044;-74
2023/05/05 02:01:27;;;;;;;9.07;4.72;;;;;;;-145.41;100.00;58600.66;4986590;28;20042;-74
2023/05/05 02:03:55;;;;;;;7.65;4.25;;;;;;;-145.41;100.00;58600.66;4983990;28;20129;-74
2023/05/05 02:06:22;;;;;;;7.35;3.97;;;;;;;-145.41;100.00;58600.66;4971029;28;20069;-74
2023/05/05 02:08:49;;;;;;;10.23;4.50;;;;;;;-145.41;100.00;58600.66;4967857;28;20045;-74
2023/05/05 02:11:16;;;;;;;6.18;4.32;;;;;;;-145.41;100.00;58600.66;5004097;28;20113;-74
2023/05/05 02:13:42;;;;;;;7.20;4.18;;;;;;;-145.41;100.00;58600.66;4984006;28;20618;-74
2023/05/05 02:16:14;;;;;;;7.33;4.20;;;;;;;-145.41;100.00;58600.66;4985534;28;20041;-74
2023/05/05 02:18:41;;;;;;;8.25;4.38;;;;;;;-145.41;100.00;58600.66;5002571;28;20046;-74
2023/05/05 02:21:07;;;;;;;7.88;4.80;;;;;;;-145.41;100.00;58600.66;5000075;28;20044;-74
2023/05/05 02:23:32;;;;;;;6.30;4.43;;;;;;;-145.41;100.00;58600.66;5002637;28;20034;-73
2023/05/05 02:26:06;;;;;;;8.38;4.35;;;;;;;-145.41;100.00;58600.66;4984547;28;20045;-74
2023/05/05 02:28:50;;;;;;;7.85;4.60;;;;;;;-145.41;100.00;58600.66;5003992;28;20041;-74
2023/05/05 02:31:18;;;;;;;7.18;4.25;;;;;;;-145.41;100.00;58600.66;5001056;28;20040;-73
2023/05/05 02:33:46;;;;;;;10.30;4.40;;;;;;;-145.41;100.00;58600.66;5003823;28;20030;-73
2023/05/05 02:36:24;;;;;;;7.95;4.30;;;;;;;-145.41;100.00;58600.66;4983432;28;20044;-73
2023/05/05 02:38:59;;;;;;;6.07;3.95;;;;;;;-145.41;100.00;58600.66;4980066;28;20453;-74
2023/05/05 02:41:28;;;;;;;8.48;4.88;;;;;;;-145.41;100.00;58600.66;4983511;28;20041;-73
2023/05/05 02:43:58;;;;;;;7.60;5.25;;;;;;;-145.41;100.00;58600.66;4983385;28;20203;-73
2023/05/05 02:46:26;;;;;;;7.85;5.22;;;;;;;-145.41;100.00;58600.66;5001576;28;20041;-73
2023/05/05 02:48:52;;;;;;;8.50;4.68;;;;;;;-145.41;100.00;58600.66;4996212;28;20035;-74
2023/05/05 02:51:17;;;;;;;10.85;5.18;;;;;;;-145.41;100.00;58600.66;4986392;28;20072;-73
2023/05/05 02:53:43;;;;;;;8.07;4.80;;;;;;;-145.41;100.00;58600.66;5000532;28;20030;-76
2023/05/05 02:56:27;;;;;;;9.90;5.20;;;;;;;-145.41;100.00;58600.66;4985750;28;20030;-75
2023/05/05 02:59:25;;;;;;;8.80;4.80;;;;;;;-145.41;100.00;58600.66;4999055;28;20065;-75
2023/05/05 03:02:07;;;;;;;7.10;4.72;;;;;;;-145.41;100.00;58600.66;4986109;28;20041;-75
2023/05/05 03:04:51;;;;;;;7.68;4.57;;;;;;;-145.41;100.00;58600.66;4983850;28;20042;-75
2023/05/05 03:07:25;;;;;;;6.82;4.35;;;;;;;-145.41;100.00;58600.66;4968515;28;20039;-76
2023/05/05 03:10:17;;;;;;;7.18;4.22;;;;;;;-145.41;100.00;58600.66;4983829;28;20038;-75
2023/05/05 03:12:55;;;;;;;8.98;5.32;;;;;;;-145.41;100.00;58600.66;4997727;28;20121;-75
2023/05/05 03:15:30;;;;;;;9.68;5.47;;;;;;;-145.41;100.00;58600.66;4979654;28;20026;-75
2023/05/05 03:17:57;;;;;;;11.60;5.50;;;;;;;-145.41;100.00;58600.66;4982834;28;20444;-73
2023/05/05 03:20:24;;;;;;;10.82;6.35;;;;;;;-145.41;100.00;58600.66;4984275;28;20105;-73
2023/05/05 03:22:50;;;;;;;9.18;6.22;;;;;;;-145.41;100.00;58600.66;4983599;28;20124;-74
2023/05/05 03:25:16;;;;;;;12.43;6.40;;;;;;;-145.41;100.00;58600.66;4980047;28;20027;-74
2023/05/05 03:27:42;;;;;;;11.45;5.43;;;;;;;-145.41;100.00;58600.66;4982196;28;20524;-74
2023/05/05 03:30:09;;;;;;;10.68;5.50;;;;;;;-145.41;100.00;58600.66;4982916;28;20034;-74
2023/05/05 03:32:41;;;;;;;12.00;5.85;;;;;;;-145.41;100.00;58600.66;4979067;28;20038;-74
2023/05/05 03:35:07;;;;;;;7.43;4.88;;;;;;;-145.41;100.00;58600.66;4981473;28;20033;-74
2023/05/05 03:37:33;;;;;;;12.10;5.35;;;;;;;-145.41;100.00;58600.66;4975679;28;20121;-74
2023/05/05 03:39:58;;;;;;;12.05;5.90;;;;;;;-145.41;100.00;58600.66;4985314;28;20194;-74
2023/05/05 03:42:24;;;;;;;8.80;5.32;;;;;;;-145.41;100.00;58600.66;4996552;28;20400;-74
2023/05/05 03:44:52;;;;;;;10.25;5.40;;;;;;;-145.41;100.00;58600.66;5001706;28;20033;-74
2023/05/05 03:47:18;;;;;;;12.48;5.43;;;;;;;-145.41;100.00;58600.66;4979261;28;20042;-74
2023/05/05 03:49:44;;;;;;;10.98;5.53;;;;;;;-145.41;100.00;58600.66;4983225;28;20467;-74
2023/05/05 03:52:09;;;;;;;8.50;5.15;;;;;;;-145.41;100.00;58600.66;5002687;28;20118;-74
2023/05/05 03:54:35;;;;;;;8.75;5.00;;;;;;;-145.41;100.00;58600.66;4982381;28;20038;-74
2023/05/05 03:57:01;;;;;;;7.45;4.50;;;;;;;-145.41;100.00;58600.66;4984946;28;20077;-74
2023/05/05 03:59:26;;;;;;;10.25;5.90;;;;;;;-145.41;100.00;58600.66;4983856;28;20412;-74
2023/05/05 04:01:52;;;;;;;12.00;8.25;;;;;;;-145.41;100.00;58600.66;5000045;28;20081;-74
2023/05/05 04:04:17;;;;;;;13.30;7.13;;;;;;;-145.41;100.00;58600.66;5000978;28;20030;-74
2023/05/05 04:06:42;;;;;;;10.32;5.78;;;;;;;-145.41;100.00;58600.66;5000089;28;20046;-74
2023/05/05 04:09:08;;;;;;;8.32;5.18;;;;;;;-145.41;100.00;58600.66;4982883;28;20042;-74
2023/05/05 04:11:34;;;;;;;10.20;5.13;;;;;;;-145.41;100.00;58600.66;4985245;28;20030;-74
2023/05/05 04:13:59;;;;;;;8.55;5.50;;;;;;;-145.41;100.00;58600.66;4976936;28;20788;-74
2023/05/05 04:16:27;;;;;;;8.98;4.55;;;;;;;-145.41;100.00;58600.66;4976664;28;20034;-74
2023/05/05 04:18:52;;;;;;;8.73;4.72;;;;;;;-145.41;100.00;58600.66;4985181;28;20038;-74
2023/05/05 04:21:18;;;;;;;6.97;4.63;;;;;;;-145.41;100.00;58600.66;4987936;28;20034;-74
2023/05/05 04:23:43;;;;;;;7.60;4.93;;;;;;;-145.41;100.00;58600.66;4984058;28;20029;-74
2023/05/05 04:26:09;;;;;;;7.47;4.75;;;;;;;-145.41;100.00;58600.66;4986317;28;20033;-74
2023/05/05 04:28:35;;;;;;;9.43;5.28;;;;;;;-145.41;100.00;58600.66;4988406;28;20488;-74
2023/05/05 04:31:03;;;;;;;9.68;5.25;;;;;;;-145.41;100.00;58600.66;4986049;28;20039;-74
2023/05/05 04:33:30;;;;;;;8.10;5.32;;;;;;;-145.41;100.00;58600.66;4981945;28;20060;-74
2023/05/05 04:35:55;;;;;;;10.45;4.97;;;;;;;-145.41;100.00;58600.66;4987897;28;20030;-74
2023/05/05 04:38:21;;;;;;;14.15;5.28;;;;;;;-145.41;100.00;58600.66;4987410;28;20112;-74
2023/05/05 04:40:47;;;;;;;7.45;5.05;;;;;;;-145.41;100.00;58600.66;4985150;28;20038;-74
2023/05/05 04:43:12;;;;;;;10.95;5.43;;;;;;;-145.41;100.00;58600.66;4981720;28;20417;-74
2023/05/05 04:45:38;;;;;;;9.00;4.57;;;;;;;-145.41;100.00;58600.66;4983976;28;20054;-74
2023/05/05 04:48:04;;;;;;;6.45;4.32;;;;;;;-145.41;100.00;58600.66;4982947;28;20039;-74
2023/05/05 04:50:30;;;;;;;7.18;4.43;;;;;;;-145.41;100.00;58600.66;4982384;28;20117;-74
2023/05/05 04:52:56;;;;;;;7.30;4.78;;;;;;;-145.41;100.00;58600.66;5000638;28;20026;-74
2023/05/05 04:55:22;;;;;;;8.15;5.00;;;;;;;-145.41;100.00;58600.66;4984858;28;20026;-74
2023/05/05 04:57:47;;;;;;;7.47;4.72;;;;;;;-145.41;100.00;58600.66;4975490;28;20104;-74
2023/05/05 05:00:13;;;;;;;9.18;4.50;;;;;;;-145.41;100.00;58600.66;4977761;28;20084;-74
2023/05/05 05:02:38;;;;;;;20.20;12.85;;;;;;;-145.41;100.00;58600.66;5003367;28;20035;-74
2023/05/05 05:05:04;;;;;;;12.55;7.68;;;;;;;-145.41;100.00;58600.66;5001891;28;20030;-74
2023/05/05 05:07:29;;;;;;;11.25;6.40;;;;;;;-145.41;100.00;58600.66;5002496;28;20074;-74
2023/05/05 05:09:55;;;;;;;9.80;5.60;;;;;;;-145.41;100.00;58600.66;4984048;28;20030;-75
2023/05/05 05:12:20;;;;;;;11.27;5.40;;;;;;;-145.41;100.00;58600.66;4981133;28;20117;-74
2023/05/05 05:14:46;;;;;;;9.18;4.97;;;;;;;-145.41;100.00;58600.66;4985255;28;20054;-76
2023/05/05 05:17:11;;;;;;;12.00;6.03;;;;;;;-145.41;100.00;58600.66;5004501;28;20041;-74
2023/05/05 05:19:36;;;;;;;8.15;5.20;;;;;;;-145.41;100.00;58600.66;4984098;28;20056;-75
2023/05/05 05:22:02;;;;;;;11.60;6.78;;;;;;;-145.41;100.00;58600.66;4982640;28;20041;-74
2023/05/05 05:24:29;;;;;;;9.75;5.70;;;;;;;-145.41;100.00;58600.66;4993956;28;20042;-74
2023/05/05 05:26:54;;;;;;;11.73;6.70;;;;;;;-145.41;100.00;58600.66;4986080;28;20534;-75
2023/05/05 05:29:20;;;;;;;8.63;6.30;;;;;;;-145.41;100.00;58600.66;4985149;28;20038;-74
2023/05/05 05:31:46;;;;;;;11.88;5.68;;;;;;;-145.41;100.00;58600.66;4983863;28;20041;-74
2023/05/05 05:34:12;;;;;;;8.43;5.00;;;;;;;-145.41;100.00;58600.66;4985836;28;20424;-74
2023/05/05 05:36:37;;;;;;;8.82;5.20;;;;;;;-145.41;100.00;58600.66;4986179;28;20041;-74
2023/05/05 05:39:03;;;;;;;9.93;6.10;;;;;;;-145.41;100.00;58600.66;5005023;28;20077;-74
2023/05/05 05:41:28;;;;;;;8.48;5.93;;;;;;;-145.41;100.00;58600.66;4983786;28;20034;-74
2023/05/05 05:43:54;;;;;;;13.88;5.97;;;;;;;-145.41;100.00;58600.66;4985212;28;20113;-74
2023/05/05 05:46:20;;;;;;;8.75;5.90;;;;;;;-145.41;100.00;58600.66;4986222;28;20034;-75
2023/05/05 05:48:45;;;;;;;10.57;5.68;;;;;;;-145.41;100.00;58600.66;4984919;28;20033;-74
2023/05/05 05:51:11;;;;;;;12.00;5.72;;;;;;;-145.41;100.00;58600.66;5003672;28;20527;-74
2023/05/05 05:53:36;;;;;;;8.98;5.75;;;;;;;-145.41;100.00;58600.66;5002353;28;20034;-74
2023/05/05 05:56:02;;;;;;;9.00;5.57;;;;;;;-145.41;100.00;58600.66;5001772;28;20507;-74
2023/05/05 05:58:27;;;;;;;8.50;4.93;;;;;;;-145.41;100.00;58600.66;4986395;28;20034;-74
2023/05/05 06:00:53;;;;;;;8.05;5.68;;;;;;;-145.41;100.00;58600.66;4984094;28;20038;-75
2023/05/05 06:03:18;;;;;;;11.75;5.60;;;;;;;-145.41;100.00;58600.66;4986198;28;20061;-74
2023/05/05 06:05:45;;;;;;;9.45;5.43;;;;;;;-145.41;100.00;58600.66;5004052;28;20037;-75
2023/05/05 06:08:11;;;;;;;11.73;6.18;;;;;;;-145.41;100.00;58600.66;4983662;28;20034;-74
2023/05/05 06:10:42;;;;;;;9.98;6.13;;;;;;;-145.41;100.00;58600.66;4961067;28;20034;-74
2023/05/05 06:13:12;;;;;;;9.05;5.35;;;;;;;-145.41;100.00;58600.66;4985841;28;20144;-74
2023/05/05 06:15:41;;;;;;;11.15;6.85;;;;;;;-145.41;100.00;58600.66;4984707;28;20023;-75
2023/05/05 06:18:06;;;;;;;8.15;5.57;;;;;;;-145.41;100.00;58600.66;4985216;28;20423;-75
2023/05/05 06:20:32;;;;;;;7.88;5.35;;;;;;;-145.41;100.00;58600.66;5056197;22;20537;-78
2023/05/05 06:22:57;;;;;;;9.35;5.65;;;;;;;-145.41;100.00;58600.66;5006261;28;20437;-78
2023/05/05 06:25:24;;;;;;;9.27;5.30;;;;;;;-145.41;100.00;58600.66;4986092;28;20069;-78
2023/05/05 06:27:50;;;;;;;8.10;5.47;;;;;;;-145.41;100.00;58600.66;5002378;28;20100;-78
2023/05/05 06:30:16;;;;;;;10.57;5.63;;;;;;;-145.41;100.00;58600.66;4994960;28;20042;-78
2023/05/05 06:32:42;;;;;;;9.20;5.28;;;;;;;-145.41;100.00;58600.66;4967992;28;20069;-78
2023/05/05 06:35:08;;;;;;;10.90;4.80;;;;;;;-145.41;100.00;58600.66;4972889;28;20129;-78
2023/05/05 06:37:33;;;;;;;7.72;4.65;;;;;;;-145.41;100.00;58600.66;4984858;28;20038;-78
2023/05/05 06:39:58;;;;;;;10.80;4.80;;;;;;;-145.41;100.00;58600.66;4981138;28;20552;-78
2023/05/05 06:42:24;;;;;;;7.55;5.00;;;;;;;-145.41;100.00;58600.66;4984748;28;20492;-78
2023/05/05 06:44:51;;;;;;;9.45;5.55;;;;;;;-145.41;100.00;58600.66;4972069;28;20469;-78
2023/05/05 06:47:16;;;;;;;8.95;5.78;;;;;;;-145.41;100.00;58600.66;4973339;28;20041;-78
2023/05/05 06:49:41;;;;;;;9.15;5.53;;;;;;;-145.41;100.00;58600.66;4990696;28;20125;-78
2023/05/05 06:52:07;;;;;;;12.40;5.70;;;;;;;-145.41;100.00;58600.66;4985350;28;20090;-78
2023/05/05 06:54:36;;;;;;;5.85;3.97;;;;;;;-145.41;100.00;58600.66;4964559;28;20030;-78
2023/05/05 06:57:01;;;;;;;13.70;6.57;;;;;;;-145.41;100.00;58600.66;4983815;28;20489;-77
2023/05/05 06:59:26;;;;;;;9.05;5.60;;;;;;;-145.41;100.00;58600.66;4984761;28;20042;-78
2023/05/05 07:01:52;;;;;;;9.57;6.05;;;;;;;-145.41;100.00;58600.66;4986141;28;20049;-77
2023/05/05 07:04:17;;;;;;;7.93;5.10;;;;;;;-145.41;100.00;58600.66;4971412;28;20042;-78
2023/05/05 07:06:42;;;;;;;8.18;4.97;;;;;;;-145.41;100.00;58600.66;4986795;28;20045;-78
2023/05/05 07:09:08;;;;;;;10.88;3.90;;;;;;;-145.41;100.00;58600.66;4989497;28;20092;-78
2023/05/05 07:11:33;;;;;;;8.13;4.22;;;;;;;-145.41;100.00;58600.66;4984454;28;20034;-78
2023/05/05 07:13:58;;;;;;;8.15;3.80;;;;;;;-145.41;100.00;58600.66;4981048;28;20070;-78
2023/05/05 07:16:25;;;;;;;6.28;3.70;;;;;;;-145.41;100.00;58600.66;4984045;28;20065;-78
2023/05/05 07:18:51;;;;;;;11.38;6.57;;;;;;;-145.41;100.00;58600.66;4974451;28;20049;-78
2023/05/05 07:21:16;;;;;;;9.38;5.35;;;;;;;-145.41;100.00;58600.66;4983384;28;20038;-78
2023/05/05 07:23:41;;;;;;;5.55;3.30;;;;;;;-145.41;100.00;58600.66;4981443;28;20047;-78
2023/05/05 07:26:07;;;;;;;5.97;3.50;;;;;;;-145.41;100.00;58600.66;4984478;28;20049;-78
2023/05/05 07:28:33;;;;;;;8.93;4.47;;;;;;;-145.41;100.00;58600.66;4982858;28;20145;-78
2023/05/05 07:30:58;;;;;;;9.05;6.78;;;;;;;-145.41;100.00;58600.66;4983891;28;20118;-78
2023/05/05 07:33:24;;;;;;;10.80;6.65;;;;;;;-145.41;100.00;58600.66;4985843;28;20120;-78
2023/05/05 07:35:49;;;;;;;12.30;7.50;;;;;;;-145.41;100.00;58600.66;4981962;28;20160;-78
2023/05/05 07:38:14;;;;;;;9.75;6.07;;;;;;;-145.41;100.00;58600.66;4972977;28;20034;-78
2023/05/05 07:40:40;;;;;;;7.78;4.15;;;;;;;-145.41;100.00;58600.66;4983965;28;20448;-78
2023/05/05 07:43:05;;;;;;;8.68;5.40;;;;;;;-145.41;100.00;58600.66;4983983;28;20038;-78
2023/05/05 07:45:31;;;;;;;8.55;5.72;;;;;;;-145.41;100.00;58600.66;4988098;28;20042;-78
2023/05/05 07:47:56;;;;;;;13.60;7.28;;;;;;;-145.41;100.00;58600.66;4986780;28;20051;-78
2023/05/05 07:50:22;;;;;;;10.38;6.20;;;;;;;-145.41;100.00;58600.66;4982152;28;20042;-78
2023/05/05 07:52:47;;;;;;;8.50;5.75;;;;;;;-145.41;100.00;58600.66;4970720;28;20093;-77
2023/05/05 07:55:12;;;;;;;11.68;6.47;;;;;;;-145.41;100.00;58600.66;4968939;28;20479;-78
2023/05/05 07:57:38;;;;;;;11.25;6.50;;;;;;;-145.41;100.00;58600.66;4987693;28;20038;-78
2023/05/05 08:00:04;;;;;;;12.95;7.55;;;;;;;-145.41;100.00;58600.66;4985811;28;20081;-78
2023/05/05 08:02:37;;;;;;;11.60;6.07;;;;;;;-145.41;100.00;58600.66;4993722;28;20038;-77
2023/05/05 08:05:03;;;;;;;8.82;6.88;;;;;;;-145.41;100.00;58600.66;4991134;28;20125;-78
2023/05/05 08:07:28;;;;;;;8.63;6.15;;;;;;;-145.41;100.00;58600.66;4968975;28;20058;-78
2023/05/05 08:09:54;;;;;;;12.02;6.57;;;;;;;-145.41;100.00;58600.66;4987299;28;20042;-78
2023/05/05 08:12:19;;;;;;;11.48;7.38;;;;;;;-145.41;100.00;58600.66;4987608;28;20068;-78
2023/05/05 08:14:44;;;;;;;11.70;6.10;;;;;;;-145.41;100.00;58600.66;4988267;28;20022;-78
2023/05/05 08:17:10;;;;;;;10.98;5.95;;;;;;;-145.41;100.00;58600.66;4986837;28;20066;-78
2023/05/05 08:19:35;;;;;;;8.95;3.70;;;;;;;-145.41;100.00;58600.66;4989241;28;20057;-77
2023/05/05 08:22:00;;;;;;;10.48;5.00;;;;;;;-145.41;100.00;58600.66;4987143;28;20042;-79
2023/05/05 08:24:26;;;;;;;8.52;5.93;;;;;;;-145.41;100.00;58600.66;4991650;28;20161;-78
2023/05/05 08:26:51;;;;;;;8.07;4.80;;;;;;;-145.41;100.00;58600.66;4986875;28;20182;-78
2023/05/05 08:29:17;;;;;;;12.27;6.32;;;;;;;-145.41;100.00;58600.66;4985100;28;20405;-78
2023/05/05 08:31:43;;;;;;;9.75;5.78;;;;;;;-145.41;100.00;58600.66;4976290;28;20030;-78
2023/05/05 08:34:08;;;;;;;9.48;5.43;;;;;;;-145.41;100.00;58600.66;4989007;28;20031;-78
2023/05/05 08:36:34;;;;;;;9.05;5.10;;;;;;;-145.41;100.00;58600.66;4974923;28;20031;-78
2023/05/05 08:39:00;;;;;;;10.48;5.97;;;;;;;-145.41;100.00;58600.66;4986397;28;20520;-77
2023/05/05 08:41:26;;;;;;;8.82;5.00;;;;;;;-145.41;100.00;58600.66;4989203;28;20121;-78
2023/05/05 08:43:51;;;;;;;9.05;5.57;;;;;;;-145.41;100.00;58600.66;4984571;28;20035;-78
2023/05/05 08:46:17;;;;;;;10.40;6.50;;;;;;;-145.41;100.00;58600.66;4987008;28;20114;-78
2023/05/05 08:48:43;;;;;;;8.82;5.93;;;;;;;-145.41;100.00;58600.66;4975756;28;20121;-79
2023/05/05 08:51:14;;;;;;;8.50;5.18;;;;;;;-145.41;100.00;58600.66;4985402;28;20048;-78
2023/05/05 08:54:01;;;;;;;11.55;5.60;;;;;;;-145.41;100.00;58600.66;4985860;28;20034;-78
2023/05/05 08:56:32;;;;;;;7.97;5.35;;;;;;;-145.41;100.00;58600.66;4988305;28;20026;-77
2023/05/05 08:58:59;;;;;;;8.45;5.45;;;;;;;-145.41;100.00;58600.66;4984377;28;20062;-78
2023/05/05 09:01:26;;;;;;;9.65;6.43;;;;;;;-145.41;100.00;58600.66;4968179;28;20046;-78
2023/05/05 09:03:52;;;;;;;10.20;5.97;;;;;;;-145.41;100.00;58600.66;4975813;28;20562;-77
2023/05/05 09:06:20;;;;;;;10.35;5.18;;;;;;;-145.41;100.00;58600.66;4982605;28;20073;-78
2023/05/05 09:08:45;;;;;;;10.20;5.05;;;;;;;-145.41;100.00;58600.66;4989576;28;20034;-78
2023/05/05 09:11:11;;;;;;;8.85;5.20;;;;;;;-145.41;100.00;58600.66;4984286;28;20403;-79
2023/05/05 09:13:36;;;;;;;9.50;5.00;;;;;;;-145.41;100.00;58600.66;4973438;28;20404;-78
2023/05/05 09:16:01;;;;;;;7.82;5.10;;;;;;;-145.41;100.00;58600.66;4985317;28;20527;-78
2023/05/05 09:18:28;;;;;;;8.45;4.20;;;;;;;-145.41;100.00;58600.66;4989023;28;20663;-77
2023/05/05 09:20:54;;;;;;;9.18;5.95;;;;;;;-145.41;100.00;58600.66;4972357;28;20412;-78
2023/05/05 09:23:20;;;;;;;7.50;5.43;;;;;;;-145.41;100.00;58600.66;4983279;28;20035;-78
2023/05/05 09:26:03;;;;;;;9.15;4.85;;;;;;;-145.41;100.00;58600.66;4986402;28;20056;-78
2023/05/05 09:28:29;;;;;;;9.15;6.03;;;;;;;-145.41;100.00;58600.66;4989228;28;20050;-78
2023/05/05 09:30:54;;;;;;;13.25;7.22;;;;;;;-145.41;100.00;58600.66;4983176;28;20064;-78
2023/05/05 09:33:30;;;;;;;8.00;4.47;;;;;;;-145.41;100.00;58600.66;4983733;28;20046;-78
2023/05/05 09:35:55;;;;;;;7.90;5.50;;;;;;;-145.41;100.00;58600.66;4970997;28;20043;-78
2023/05/05 09:38:23;;;;;;;7.20;4.97;;;;;;;-145.41;100.00;58600.66;4986545;28;20034;-77
2023/05/05 09:40:52;;;;;;;8.00;5.28;;;;;;;-145.41;100.00;58600.66;4984915;28;20046;-78
2023/05/05 09:43:22;;;;;;;10.07;5.60;;;;;;;-145.41;100.00;58600.66;4984768;28;20042;-78
2023/05/05 09:45:49;;;;;;;6.28;4.45;;;;;;;-145.41;100.00;58600.66;4984833;28;20588;-78
2023/05/05 09:48:28;;;;;;;7.68;3.90;;;;;;;-145.41;100.00;58600.66;4983772;28;20030;-78
2023/05/05 09:50:55;;;;;;;7.47;3.60;;;;;;;-145.41;100.00;58600.66;4973214;28;20049;-78
2023/05/05 09:53:20;;;;;;;8.07;4.85;;;;;;;-145.41;100.00;58600.66;4985255;28;20092;-78
2023/05/05 09:55:56;;;;;;;7.75;4.53;;;;;;;-145.41;100.00;58600.66;4983093;28;20030;-78
2023/05/05 09:58:23;;;;;;;10.35;6.00;;;;;;;-145.41;100.00;58600.66;4966236;28;20053;-78
2023/05/05 10:00:49;;;;;;;7.18;5.10;;;;;;;-145.41;100.00;58600.66;4986992;28;20044;-78
2023/05/05 10:03:15;;;;;;;8.32;4.95;;;;;;;-145.41;100.00;58600.66;4968770;28;20030;-78
2023/05/05 10:05:46;;;;;;;7.00;4.25;;;;;;;-145.41;100.00;58600.66;4982619;28;20035;-78
2023/05/05 10:08:12;;;;;;;7.50;4.15;;;;;;;-145.41;100.00;58600.66;4969330;28;20035;-79
2023/05/05 10:10:50;;;;;;;10.00;6.18;;;;;;;-145.41;100.00;58600.66;4986110;28;20386;-79
2023/05/05 10:13:17;;;;;;;5.70;3.20;;;;;;;-145.41;100.00;58600.66;4984606;28;20065;-77
2023/05/05 10:15:44;;;;;;;6.20;3.92;;;;;;;-145.41;100.00;58600.66;4984424;28;20053;-78
2023/05/05 10:18:13;;;;;;;9.15;5.25;;;;;;;-145.41;100.00;58600.66;4984443;28;20084;-78
2023/05/05 10:20:42;;;;;;;8.10;4.82;;;;;;;-145.41;100.00;58600.66;4990666;28;20125;-78
2023/05/05 10:23:09;;;;;;;6.82;4.60;;;;;;;-145.41;100.00;58600.66;4990563;28;20180;-79
2023/05/05 10:25:45;;;;;;;8.02;4.47;;;;;;;-145.41;100.00;58600.66;4986077;28;20394;-78
2023/05/05 10:28:18;;;;;;;8.70;4.20;;;;;;;-145.41;100.00;58600.66;4984922;28;20038;-79
2023/05/05 10:30:47;;;;;;;7.32;3.95;;;;;;;-145.41;100.00;58600.66;4984768;28;20605;-78
2023/05/05 10:33:20;;;;;;;8.90;3.95;;;;;;;-145.41;100.00;58600.66;4988614;28;20428;-78
2023/05/05 10:35:51;;;;;;;7.28;4.15;;;;;;;-145.41;100.00;58600.66;4981380;28;20039;-78
2023/05/05 10:38:17;;;;;;;7.43;4.90;;;;;;;-145.41;100.00;58600.66;4985179;28;20062;-78
2023/05/05 10:40:47;;;;;;;4.30;2.58;;;;;;;-145.41;100.00;58600.66;4983318;28;20038;-77
2023/05/05 10:43:13;;;;;;;5.55;3.40;;;;;;;-145.41;100.00;58600.66;4990476;28;20491;-78
2023/05/05 10:45:40;;;;;;;8.00;4.97;;;;;;;-145.41;100.00;58600.66;4990255;28;20441;-78
2023/05/05 10:48:11;;;;;;;5.35;3.28;;;;;;;-145.41;100.00;58600.66;4993977;28;20048;-79
2023/05/05 10:50:47;;;;;;;4.00;1.98;;;;;;;-145.41;100.00;58600.66;4991930;28;20038;-79
2023/05/05 10:53:23;;;;;;;4.38;1.73;;;;;;;-145.41;100.00;58600.66;4992422;28;20049;-79
2023/05/05 10:56:12;;;;;;;5.05;2.75;;;;;;;-145.41;100.00;58600.66;4984507;28;20038;-79
2023/05/05 10:58:40;;;;;;;6.78;3.95;;;;;;;-145.41;100.00;58600.66;4984147;28;20083;-78
2023/05/05 11:01:06;;;;;;;7.93;4.22;;;;;;;-145.41;100.00;58600.66;4988933;28;20042;-79
2023/05/05 11:03:32;;;;;;;6.40;3.90;;;;;;;-145.41;100.00;58600.66;4989456;28;20034;-79
2023/05/05 11:06:03;;;;;;;6.88;4.20;;;;;;;-145.41;100.00;58600.66;4988980;28;20112;-80
2023/05/05 11:08:49;;;;;;;8.98;5.50;;;;;;;-145.41;100.00;58600.66;4983524;28;20128;-79
2023/05/05 11:11:14;;;;;;;5.68;3.90;;;;;;;-145.41;100.00;58600.66;4966114;28;20053;-79